createdAt,value
2018-07-20T00:01:15.654Z,6.57
2018-07-20T00:04:18.191Z,3.77
2018-07-20T00:07:21.655Z,4.10
2018-07-20T00:10:24.182Z,6.77
2018-07-20T00:13:26.555Z,3.87
2018-07-20T00:16:30.199Z,2.93
2018-07-20T00:19:32.547Z,3.80
2018-07-20T00:22:34.949Z,2.70
2018-07-20T00:25:37.578Z,5.43
2018-07-20T00:28:41.123Z,4.60
2018-07-20T00:31:43.664Z,3.63
2018-07-20T00:34:46.125Z,5.53
2018-07-20T00:37:50.570Z,3.67
2018-07-20T00:40:54.042Z,3.77
2018-07-20T00:43:56.633Z,4.90
2018-07-20T00:46:59.286Z,8.40
2018-07-20T00:50:01.585Z,4.03
2018-07-20T00:53:03.970Z,5.17
2018-07-20T00:56:06.397Z,7.20
2018-07-20T00:59:08.719Z,4.33
2018-07-20T01:02:12.134Z,9.77
2018-07-20T01:05:14.611Z,5.13
2018-07-20T01:08:18.206Z,4.90
2018-07-20T01:11:20.732Z,3.03
2018-07-20T01:14:23.195Z,7.60
2018-07-20T01:17:25.545Z,4.00
2018-07-20T01:20:27.930Z,3.67
2018-07-20T01:23:31.418Z,4.93
2018-07-20T01:26:33.941Z,3.57
2018-07-20T01:29:36.383Z,4.37
2018-07-20T01:32:38.929Z,8.90
2018-07-20T01:35:41.443Z,3.57
2018-07-20T01:38:43.971Z,5.70
2018-07-20T01:41:47.329Z,3.77
2018-07-20T01:44:49.735Z,6.47
2018-07-20T01:47:52.206Z,3.90
2018-07-20T01:50:54.811Z,5.13
2018-07-20T01:53:57.484Z,3.60
2018-07-20T01:57:00.015Z,6.13
2018-07-20T02:00:02.514Z,3.60
2018-07-20T02:03:05.149Z,7.27
2018-07-20T02:06:08.566Z,8.87
2018-07-20T02:09:11.927Z,4.23
2018-07-20T02:12:14.273Z,4.27
2018-07-20T02:15:16.654Z,5.97
2018-07-20T02:18:18.997Z,3.50
2018-07-20T02:21:21.297Z,4.80
2018-07-20T02:24:23.573Z,3.93
2018-07-20T02:27:25.836Z,6.50
2018-07-20T02:30:28.179Z,3.73
2018-07-20T02:33:30.470Z,7.63
2018-07-20T02:36:32.760Z,4.80
2018-07-20T02:39:35.001Z,4.20
2018-07-20T02:42:37.330Z,3.70
2018-07-20T02:45:40.679Z,5.00
2018-07-20T02:48:42.977Z,3.40
2018-07-20T02:51:45.272Z,4.50
2018-07-20T02:54:47.750Z,5.47
2018-07-20T02:57:50.169Z,4.77
2018-07-20T03:00:52.548Z,5.13
2018-07-20T03:03:55.052Z,7.10
2018-07-20T03:06:57.452Z,4.33
2018-07-20T03:09:59.859Z,5.10
2018-07-20T03:13:02.203Z,4.40
2018-07-20T03:16:05.516Z,3.80
2018-07-20T03:19:08.153Z,6.03
2018-07-20T03:22:10.483Z,4.40
2018-07-20T03:25:13.844Z,7.40
2018-07-20T03:28:16.314Z,4.00
2018-07-20T03:31:18.715Z,4.40
2018-07-20T03:34:22.189Z,4.13
2018-07-20T03:37:24.651Z,6.00
2018-07-20T03:40:27.164Z,4.03
2018-07-20T03:43:30.641Z,6.27
2018-07-20T03:46:33.197Z,7.37
2018-07-20T03:49:35.581Z,4.90
2018-07-20T03:52:37.917Z,6.27
2018-07-20T03:55:40.253Z,4.60
2018-07-20T03:58:43.777Z,4.30
2018-07-20T04:01:46.152Z,5.73
2018-07-20T04:04:48.606Z,3.93
2018-07-20T04:07:52.993Z,4.17
2018-07-20T04:10:55.507Z,7.47
2018-07-20T04:13:57.948Z,5.27
2018-07-20T04:17:00.419Z,5.80
2018-07-20T04:20:02.982Z,3.77
2018-07-20T04:23:06.429Z,5.13
2018-07-20T04:26:08.857Z,5.10
2018-07-20T04:29:11.259Z,3.90
2018-07-20T04:32:13.885Z,7.67
2018-07-20T04:35:16.366Z,6.37
2018-07-20T04:38:18.895Z,3.23
2018-07-20T04:41:21.137Z,4.30
2018-07-20T04:44:23.361Z,4.07
2018-07-20T04:47:25.801Z,3.63
2018-07-20T04:50:30.093Z,6.63
2018-07-20T04:53:33.479Z,6.03
2018-07-20T04:56:35.881Z,3.20
2018-07-20T04:59:40.266Z,4.13
2018-07-20T05:02:42.678Z,5.47
2018-07-20T05:05:45.247Z,3.77
2018-07-20T05:08:47.695Z,5.73
2018-07-20T05:11:50.278Z,5.50
2018-07-20T05:14:52.820Z,5.27
2018-07-20T05:17:55.284Z,8.03
2018-07-20T05:20:57.615Z,5.40
2018-07-20T05:23:59.879Z,5.10
2018-07-20T05:27:02.140Z,6.90
2018-07-20T05:30:04.907Z,6.97
2018-07-20T05:33:07.270Z,6.93
2018-07-20T05:36:15.198Z,4.43
2018-07-20T05:39:18.527Z,5.97
2018-07-20T05:42:21.010Z,7.20
2018-07-20T05:45:25.701Z,5.77
2018-07-20T05:48:29.201Z,10.80
2018-07-20T05:51:35.513Z,5.37
2018-07-20T05:54:38.811Z,6.27
2018-07-20T05:57:41.220Z,4.60
2018-07-20T06:01:47.567Z,6.60
2018-07-20T06:04:50.098Z,5.90
2018-07-20T06:07:58.254Z,7.00
2018-07-20T06:11:01.751Z,10.27
2018-07-20T06:14:04.193Z,7.57
2018-07-20T06:17:06.580Z,6.43
2018-07-20T06:20:12.892Z,4.57
2018-07-20T06:23:16.378Z,4.33
2018-07-20T06:26:19.832Z,4.00
2018-07-20T06:29:22.051Z,4.90
2018-07-20T06:32:27.935Z,4.67
2018-07-20T06:35:33.895Z,4.73
2018-07-20T06:38:36.611Z,6.07
2018-07-20T06:41:55.541Z,5.43
2018-07-20T06:44:57.910Z,5.87
2018-07-20T06:48:00.194Z,5.53
2018-07-20T06:51:07.878Z,3.47
2018-07-20T06:54:14.850Z,6.33
2018-07-20T06:57:18.129Z,8.57
2018-07-20T07:00:24.227Z,7.27
2018-07-20T07:03:26.469Z,4.93
2018-07-20T07:06:33.025Z,5.83
2018-07-20T07:09:35.365Z,6.57
2018-07-20T07:13:00.571Z,4.23
2018-07-20T07:16:03.099Z,3.90
2018-07-20T07:19:05.538Z,8.70
2018-07-20T07:22:09.286Z,5.10
2018-07-20T07:25:11.677Z,5.00
2018-07-20T07:28:17.531Z,4.90
2018-07-20T07:31:24.173Z,4.70
2018-07-20T07:34:28.537Z,4.57
2018-07-20T07:37:35.657Z,3.77
2018-07-20T07:40:40.749Z,4.70
2018-07-20T07:43:45.582Z,4.40
2018-07-20T07:46:49.621Z,3.47
2018-07-20T07:49:52.000Z,6.53
2018-07-20T07:52:55.357Z,3.40
2018-07-20T07:55:57.650Z,6.17
2018-07-20T07:58:59.975Z,4.50
2018-07-20T08:02:03.629Z,2.93
2018-07-20T08:05:08.133Z,3.40
2018-07-20T08:08:10.394Z,3.47
2018-07-20T08:11:12.699Z,3.90
2018-07-20T08:14:15.134Z,5.37
2018-07-20T08:17:17.481Z,3.20
2018-07-20T08:20:20.105Z,3.17
2018-07-20T08:23:28.607Z,8.97
2018-07-20T08:26:31.171Z,9.47
2018-07-20T08:29:34.744Z,5.10
2018-07-20T08:32:39.253Z,6.27
2018-07-20T08:35:42.594Z,2.90
2018-07-20T08:38:48.190Z,5.30
2018-07-20T08:41:50.406Z,4.97
2018-07-20T08:44:55.884Z,11.03
2018-07-20T08:48:03.055Z,5.10
2018-07-20T08:51:05.422Z,9.73
2018-07-20T08:54:07.893Z,4.70
2018-07-20T08:57:15.343Z,5.57
2018-07-20T09:00:18.144Z,8.10
2018-07-20T09:03:20.748Z,6.10
2018-07-20T09:06:24.174Z,8.43
2018-07-20T09:09:28.848Z,5.00
2018-07-20T09:12:31.244Z,6.90
2018-07-20T09:15:35.647Z,4.97
2018-07-20T09:18:46.600Z,7.53
2018-07-20T09:21:49.655Z,7.47
2018-07-20T09:24:56.521Z,5.60
2018-07-20T09:27:59.080Z,5.00
2018-07-20T09:31:02.685Z,5.23
2018-07-20T09:34:07.193Z,3.13
2018-07-20T09:37:10.521Z,5.93
2018-07-20T09:40:13.168Z,8.40
2018-07-20T09:43:16.709Z,4.97
2018-07-20T09:46:22.870Z,8.87
2018-07-20T09:49:27.116Z,5.00
2018-07-20T09:52:30.485Z,13.13
2018-07-20T09:55:32.906Z,5.67
2018-07-20T09:58:35.295Z,4.50
2018-07-20T10:01:37.564Z,6.17
2018-07-20T10:08:11.204Z,5.53
2018-07-20T10:11:15.509Z,3.87
2018-07-20T10:14:17.864Z,3.53
2018-07-20T10:17:26.144Z,8.67
2018-07-20T10:20:33.955Z,5.10
2018-07-20T10:23:38.331Z,4.00
2018-07-20T10:26:40.619Z,4.70
2018-07-20T10:29:44.959Z,3.70
2018-07-20T10:32:49.390Z,5.83
2018-07-20T10:35:51.725Z,3.83
2018-07-20T10:38:54.292Z,3.87
2018-07-20T10:41:57.590Z,3.93
2018-07-20T10:45:00.093Z,3.27
2018-07-20T10:48:02.650Z,3.37
2018-07-20T10:51:05.440Z,5.90
2018-07-20T10:54:10.161Z,5.13
2018-07-20T10:57:16.942Z,3.60
2018-07-20T11:00:19.330Z,5.10
2018-07-20T11:03:24.674Z,3.33
2018-07-20T11:06:32.633Z,2.70
2018-07-20T11:09:40.512Z,5.27
2018-07-20T11:12:46.037Z,4.47
2018-07-20T11:15:48.730Z,4.10
2018-07-20T11:18:51.203Z,3.83
2018-07-20T11:21:54.807Z,4.87
2018-07-20T11:24:58.347Z,3.43
2018-07-20T11:28:00.860Z,19.83
2018-07-20T11:31:04.290Z,7.87
2018-07-20T11:34:06.751Z,3.83
2018-07-20T11:37:11.250Z,4.07
2018-07-20T11:40:13.801Z,5.17
2018-07-20T11:43:16.351Z,3.27
2018-07-20T11:46:18.943Z,3.83
2018-07-20T11:49:22.515Z,3.23
2018-07-20T11:52:25.998Z,3.80
2018-07-20T11:55:28.557Z,3.40
2018-07-20T11:58:30.948Z,3.53
2018-07-20T12:01:33.235Z,3.57
2018-07-20T12:04:47.222Z,4.00
2018-07-20T12:07:50.765Z,4.00
2018-07-20T12:10:53.168Z,5.67
2018-07-20T12:13:59.408Z,4.03
2018-07-20T12:17:02.765Z,5.27
2018-07-20T12:20:06.210Z,3.63
2018-07-20T12:23:10.609Z,5.57
2018-07-20T12:26:13.939Z,8.47
2018-07-20T12:29:23.335Z,3.23
2018-07-20T12:32:25.787Z,6.17
2018-07-20T12:35:31.314Z,5.13
2018-07-20T12:38:33.620Z,3.43
2018-07-20T12:41:36.010Z,4.30
2018-07-20T12:44:38.422Z,3.20
2018-07-20T12:47:41.810Z,4.10
2018-07-20T12:50:49.221Z,3.80
2018-07-20T12:53:51.926Z,3.80
2018-07-20T12:57:01.335Z,3.97
2018-07-20T13:00:04.918Z,3.67
2018-07-20T13:03:07.412Z,5.37
2018-07-20T13:06:18.341Z,4.83
2018-07-20T13:09:26.484Z,4.67
2018-07-20T13:12:32.443Z,3.40
2018-07-20T13:15:38.333Z,4.53
2018-07-20T13:18:45.228Z,4.03
2018-07-20T13:21:52.091Z,3.43
2018-07-20T13:24:54.707Z,3.87
2018-07-20T13:28:01.499Z,5.90
2018-07-20T13:31:03.855Z,5.30
2018-07-20T13:34:07.522Z,3.87
2018-07-20T13:37:12.110Z,3.70
2018-07-20T13:40:14.643Z,4.00
2018-07-20T13:43:18.125Z,3.40
2018-07-20T13:46:20.780Z,3.53
2018-07-20T13:49:26.746Z,4.97
2018-07-20T13:52:29.415Z,3.70
2018-07-20T13:55:31.972Z,3.97
2018-07-20T13:58:34.461Z,4.43
2018-07-20T14:01:37.040Z,6.50
2018-07-20T14:04:39.690Z,3.50
2018-07-20T14:07:43.363Z,3.57
2018-07-20T14:10:46.190Z,3.73
2018-07-20T14:13:48.711Z,3.47
2018-07-20T14:16:51.114Z,5.07
2018-07-20T14:19:53.631Z,5.00
2018-07-20T14:22:56.256Z,6.43
2018-07-20T14:25:59.049Z,4.83
2018-07-20T14:29:01.666Z,3.10
2018-07-20T14:32:04.329Z,3.20
2018-07-20T14:35:06.937Z,3.20
2018-07-20T14:38:09.510Z,5.40
2018-07-20T14:41:11.843Z,3.30
2018-07-20T14:44:14.312Z,3.80
2018-07-20T14:47:16.754Z,3.80
2018-07-20T14:50:19.205Z,3.87
2018-07-20T14:53:21.647Z,4.23
2018-07-20T14:56:24.122Z,5.10
2018-07-20T14:59:26.536Z,4.00
2018-07-20T15:02:29.071Z,6.27
2018-07-20T15:05:31.599Z,4.43
2018-07-20T15:08:34.187Z,4.07
2018-07-20T15:11:37.319Z,4.50
2018-07-20T15:14:39.842Z,3.60
2018-07-20T15:17:42.487Z,3.63
2018-07-20T15:20:45.135Z,6.40
2018-07-20T15:23:47.850Z,3.80
2018-07-20T15:26:51.231Z,5.73
2018-07-20T15:29:53.626Z,5.10
2018-07-20T15:32:56.256Z,6.90
2018-07-20T15:35:58.819Z,3.57
2018-07-20T15:39:02.500Z,6.37
2018-07-20T15:42:05.076Z,3.80
2018-07-20T15:45:08.630Z,5.33
2018-07-20T15:48:10.877Z,3.60
2018-07-20T15:51:13.225Z,6.57
2018-07-20T15:54:15.623Z,3.60
2018-07-20T15:57:19.101Z,4.10
2018-07-20T16:00:21.643Z,3.47
2018-07-20T16:03:24.175Z,4.57
2018-07-20T16:06:26.569Z,8.43
2018-07-20T16:09:30.103Z,14.67
2018-07-20T16:12:32.725Z,4.10
2018-07-20T16:15:35.289Z,7.23
2018-07-20T16:18:37.892Z,5.87
2018-07-20T16:21:40.386Z,3.97
2018-07-20T16:24:42.980Z,8.67
2018-07-20T16:27:45.541Z,10.73
2018-07-20T16:30:48.021Z,10.47
2018-07-20T16:33:50.503Z,15.17
2018-07-20T16:36:52.998Z,5.37
2018-07-20T16:39:55.813Z,6.10
2018-07-20T16:42:58.599Z,5.97
2018-07-20T16:46:01.151Z,3.67
2018-07-20T16:49:03.759Z,3.60
2018-07-20T16:52:06.169Z,3.77
2018-07-20T16:55:08.513Z,5.77
2018-07-20T16:58:12.958Z,5.87
2018-07-20T17:01:15.309Z,9.30
2018-07-20T17:04:19.852Z,4.07
2018-07-20T17:07:24.289Z,5.10
2018-07-20T17:10:26.780Z,9.00
2018-07-20T17:13:29.323Z,11.00
2018-07-20T17:16:31.845Z,6.67
2018-07-20T17:19:35.496Z,10.80
2018-07-20T17:22:38.068Z,7.80
2018-07-20T17:25:41.290Z,5.60
2018-07-20T17:28:43.670Z,6.47
2018-07-20T17:31:47.038Z,6.17
2018-07-20T17:34:50.314Z,8.90
2018-07-20T17:37:52.618Z,7.50
2018-07-20T17:40:54.928Z,14.43
2018-07-20T17:43:57.363Z,5.70
2018-07-20T17:46:59.677Z,8.43
2018-07-20T17:50:03.045Z,11.67
2018-07-20T17:53:07.493Z,8.47
2018-07-20T17:56:09.869Z,4.93
2018-07-20T17:59:12.152Z,6.40
2018-07-20T18:02:14.461Z,7.57
2018-07-20T18:05:16.666Z,10.50
2018-07-20T18:08:18.985Z,9.03
2018-07-20T18:11:21.518Z,10.40
2018-07-20T18:14:23.877Z,6.23
2018-07-20T18:17:27.250Z,6.57
2018-07-20T18:20:29.711Z,5.60
2018-07-20T18:23:31.973Z,4.70
2018-07-20T18:26:34.315Z,5.67
2018-07-20T18:29:36.684Z,18.87
2018-07-20T18:32:38.965Z,45.40
2018-07-20T18:35:41.286Z,21.37
2018-07-20T18:38:49.596Z,16.10
2018-07-20T18:41:51.785Z,12.80
2018-07-20T18:44:54.077Z,14.60
2018-07-20T18:47:56.383Z,17.50
2018-07-20T18:50:58.598Z,20.60
2018-07-20T18:54:01.020Z,24.43
2018-07-20T18:57:03.274Z,11.93
2018-07-20T19:00:05.905Z,12.97
2018-07-20T19:03:08.149Z,12.53
2018-07-20T19:06:10.394Z,11.07
2018-07-20T19:09:12.717Z,8.60
2018-07-20T19:12:18.146Z,12.93
2018-07-20T19:15:20.373Z,8.57
2018-07-20T19:18:24.644Z,10.30
2018-07-20T19:21:26.912Z,9.20
2018-07-20T19:24:29.179Z,22.70
2018-07-20T19:27:31.466Z,15.63
2018-07-20T19:30:34.749Z,17.53
2018-07-20T19:33:37.093Z,17.50
2018-07-20T19:36:39.389Z,14.83
2018-07-20T19:39:43.754Z,15.20
2018-07-20T19:42:46.014Z,9.90
2018-07-20T19:45:48.274Z,11.87
2018-07-20T19:48:51.577Z,7.90
2018-07-20T19:51:53.790Z,7.83
2018-07-20T19:54:58.113Z,12.57
2018-07-20T19:58:02.377Z,8.60
2018-07-20T20:01:04.610Z,10.80
2018-07-20T20:04:06.922Z,12.87
2018-07-20T20:07:09.171Z,13.10
2018-07-20T20:10:13.497Z,31.03
2018-07-20T20:13:15.859Z,17.17
2018-07-20T20:16:18.119Z,27.30
2018-07-20T20:19:20.434Z,19.70
2018-07-20T20:22:23.681Z,31.33
2018-07-20T20:25:25.915Z,34.90
2018-07-20T20:28:28.182Z,19.23
2018-07-20T20:31:30.404Z,8.03
2018-07-20T20:34:32.723Z,11.33
2018-07-20T20:37:34.957Z,11.47
2018-07-20T20:40:39.249Z,18.20
2018-07-20T20:43:41.675Z,14.53
2018-07-20T20:46:43.985Z,8.23
2018-07-20T20:49:46.297Z,8.43
2018-07-20T20:52:48.566Z,8.10
2018-07-20T20:55:50.846Z,6.57
2018-07-20T20:58:53.159Z,9.20
2018-07-20T21:01:55.449Z,13.50
2018-07-20T21:04:58.834Z,6.43
2018-07-20T21:08:01.034Z,6.27
2018-07-20T21:11:04.275Z,9.50
2018-07-20T21:14:06.550Z,9.13
2018-07-20T21:17:09.817Z,14.70
2018-07-20T21:20:14.190Z,7.20
2018-07-20T21:23:16.491Z,15.57
2018-07-20T21:26:19.715Z,10.90
2018-07-20T21:29:21.901Z,10.87
2018-07-20T21:32:24.129Z,10.00
2018-07-20T21:35:27.429Z,5.70
2018-07-20T21:38:29.689Z,6.77
2018-07-20T21:41:32.874Z,6.20
2018-07-20T21:44:35.201Z,6.40
2018-07-20T21:47:37.424Z,5.30
2018-07-20T21:50:39.639Z,16.60
2018-07-20T21:53:41.875Z,10.67
2018-07-20T21:56:44.170Z,13.60
2018-07-20T21:59:48.390Z,7.20
2018-07-20T22:02:50.638Z,5.70
2018-07-20T22:05:52.949Z,5.13
2018-07-20T22:08:55.187Z,10.10
2018-07-20T22:11:57.418Z,7.23
2018-07-20T22:14:59.648Z,6.50
2018-07-20T22:18:01.859Z,5.73
2018-07-20T22:21:04.196Z,7.97
2018-07-20T22:24:09.837Z,13.07
2018-07-20T22:27:12.105Z,8.07
2018-07-20T22:30:17.446Z,12.37
2018-07-20T22:33:20.897Z,9.10
2018-07-20T22:36:24.331Z,7.47
2018-07-20T22:39:26.797Z,5.53
2018-07-20T22:42:30.086Z,8.53
2018-07-20T22:45:32.426Z,6.87
2018-07-20T22:48:34.662Z,5.90
2018-07-20T22:51:36.891Z,5.60
2018-07-20T22:54:39.137Z,6.90
2018-07-20T22:57:41.324Z,9.53
2018-07-20T23:00:43.573Z,5.17
2018-07-20T23:03:46.134Z,8.57
2018-07-20T23:06:48.437Z,10.13
2018-07-20T23:09:50.882Z,12.13
2018-07-20T23:12:53.138Z,9.37
2018-07-20T23:15:56.392Z,7.80
2018-07-20T23:18:58.722Z,9.20
2018-07-20T23:22:00.949Z,9.43
2018-07-20T23:25:03.349Z,7.23
2018-07-20T23:28:06.547Z,8.20
2018-07-20T23:31:08.725Z,6.97
2018-07-20T23:34:11.069Z,15.40
2018-07-20T23:37:15.310Z,13.10
2018-07-20T23:40:17.736Z,10.63
2018-07-20T23:43:19.906Z,6.40
2018-07-20T23:46:22.134Z,7.10
2018-07-20T23:49:25.438Z,6.37
2018-07-20T23:52:27.697Z,6.63
2018-07-20T23:55:29.969Z,9.07
2018-07-20T23:58:32.261Z,9.00
